sensor_id;sensor_type;location;lat;lon;timestamp;pressure;altitude;pressure_sealevel;temperature;humidity
49397;BME280;35615;41.410;2.194;2023-02-20T00:01:02;102558.97;;;17.68;37.67
49397;BME280;35615;41.410;2.194;2023-02-20T00:03:47;102552.75;;;17.65;37.38
49397;BME280;35615;41.410;2.194;2023-02-20T00:07:01;102552.06;;;17.69;37.31
49397;BME280;35615;41.410;2.194;2023-02-20T00:09:44;102552.84;;;17.68;37.35
49397;BME280;35615;41.410;2.194;2023-02-20T00:12:20;102553.59;;;17.64;37.44
49397;BME280;35615;41.410;2.194;2023-02-20T00:14:53;102556.94;;;17.61;37.37
49397;BME280;35615;41.410;2.194;2023-02-20T00:17:25;102552.44;;;17.57;37.13
49397;BME280;35615;41.410;2.194;2023-02-20T00:20:02;102557.63;;;17.56;37.33
49397;BME280;35615;41.410;2.194;2023-02-20T00:22:39;102563.72;;;17.56;37.38
49397;BME280;35615;41.410;2.194;2023-02-20T00:25:06;102561.84;;;17.52;37.54
49397;BME280;35615;41.410;2.194;2023-02-20T00:27:34;102561.06;;;17.55;37.38
49397;BME280;35615;41.410;2.194;2023-02-20T00:30:15;102564.97;;;17.43;37.93
49397;BME280;35615;41.410;2.194;2023-02-20T00:32:55;102558.81;;;17.41;37.59
49397;BME280;35615;41.410;2.194;2023-02-20T00:35:25;102557.25;;;17.47;37.25
49397;BME280;35615;41.410;2.194;2023-02-20T00:38:01;102549.13;;;17.39;37.60
49397;BME280;35615;41.410;2.194;2023-02-20T00:40:33;102544.03;;;17.42;37.33
49397;BME280;35615;41.410;2.194;2023-02-20T00:43:08;102537.72;;;17.37;37.69
49397;BME280;35615;41.410;2.194;2023-02-20T00:45:40;102543.78;;;17.36;37.18
49397;BME280;35615;41.410;2.194;2023-02-20T00:48:17;102534.06;;;17.32;37.55
49397;BME280;35615;41.410;2.194;2023-02-20T00:51:16;102533.09;;;17.30;37.71
49397;BME280;35615;41.410;2.194;2023-02-20T00:53:58;102529.59;;;17.29;37.76
49397;BME280;35615;41.410;2.194;2023-02-20T00:56:26;102529.59;;;17.29;37.90
49397;BME280;35615;41.410;2.194;2023-02-20T00:59:17;102525.06;;;17.25;37.75
49397;BME280;35615;41.410;2.194;2023-02-20T01:01:56;102531.25;;;17.27;37.45
49397;BME280;35615;41.410;2.194;2023-02-20T01:04:26;102541.63;;;17.26;37.62
49397;BME280;35615;41.410;2.194;2023-02-20T01:07:03;102535.41;;;17.22;37.88
49397;BME280;35615;41.410;2.194;2023-02-20T01:09:47;102537.66;;;17.13;37.79
49397;BME280;35615;41.410;2.194;2023-02-20T01:12:19;102535.81;;;17.10;38.03
49397;BME280;35615;41.410;2.194;2023-02-20T01:15:14;102538.44;;;17.10;37.72
49397;BME280;35615;41.410;2.194;2023-02-20T01:17:57;102532.94;;;17.04;37.47
49397;BME280;35615;41.410;2.194;2023-02-20T01:20:31;102537.16;;;17.01;37.74
49397;BME280;35615;41.410;2.194;2023-02-20T01:23:03;102537.78;;;16.95;38.05
49397;BME280;35615;41.410;2.194;2023-02-20T01:25:34;102535.94;;;16.93;38.08
49397;BME280;35615;41.410;2.194;2023-02-20T01:28:08;102531.56;;;16.92;37.96
49397;BME280;35615;41.410;2.194;2023-02-20T01:30:57;102529.47;;;16.83;38.24
49397;BME280;35615;41.410;2.194;2023-02-20T01:33:49;102528.50;;;16.81;38.54
49397;BME280;35615;41.410;2.194;2023-02-20T01:36:34;102535.28;;;16.76;38.16
49397;BME280;35615;41.410;2.194;2023-02-20T01:39:19;102532.78;;;16.79;38.09
49397;BME280;35615;41.410;2.194;2023-02-20T01:41:51;102528.28;;;16.75;37.94
49397;BME280;35615;41.410;2.194;2023-02-20T01:44:28;102523.06;;;16.75;38.37
49397;BME280;35615;41.410;2.194;2023-02-20T01:47:24;102522.09;;;16.73;38.01
49397;BME280;35615;41.410;2.194;2023-02-20T01:50:01;102515.78;;;16.68;38.34
49397;BME280;35615;41.410;2.194;2023-02-20T01:52:34;102507.25;;;16.72;38.05
49397;BME280;35615;41.410;2.194;2023-02-20T01:55:30;102507.97;;;16.68;38.51
49397;BME280;35615;41.410;2.194;2023-02-20T01:58:22;102512.19;;;16.66;38.05
49397;BME280;35615;41.410;2.194;2023-02-20T02:01:01;102506.25;;;16.68;37.94
49397;BME280;35615;41.410;2.194;2023-02-20T02:03:45;102507.59;;;16.60;38.52
49397;BME280;35615;41.410;2.194;2023-02-20T02:06:49;102499.78;;;16.60;38.16
49397;BME280;35615;41.410;2.194;2023-02-20T02:09:49;102500.66;;;16.61;38.11
49397;BME280;35615;41.410;2.194;2023-02-20T02:12:39;102500.59;;;16.59;38.51
49397;BME280;35615;41.410;2.194;2023-02-20T02:15:14;102498.59;;;16.52;38.59
49397;BME280;35615;41.410;2.194;2023-02-20T02:42:47;102484.81;;;16.35;38.82
49397;BME280;35615;41.410;2.194;2023-02-20T02:49:11;102489.53;;;16.23;38.64
49397;BME280;35615;41.410;2.194;2023-02-20T02:51:45;102486.16;;;16.25;38.73
49397;BME280;35615;41.410;2.194;2023-02-20T02:54:27;102485.19;;;16.23;38.95
49397;BME280;35615;41.410;2.194;2023-02-20T02:57:25;102471.22;;;16.21;39.29
49397;BME280;35615;41.410;2.194;2023-02-20T03:00:50;102485.97;;;16.21;39.47
49397;BME280;35615;41.410;2.194;2023-02-20T03:03:35;102483.22;;;16.18;39.17
49397;BME280;35615;41.410;2.194;2023-02-20T03:06:17;102478.91;;;16.18;39.01
49397;BME280;35615;41.410;2.194;2023-02-20T03:09:03;102479.53;;;16.13;39.37
49397;BME280;35615;41.410;2.194;2023-02-20T03:12:04;102481.53;;;15.99;39.75
49397;BME280;35615;41.410;2.194;2023-02-20T03:14:47;102472.91;;;16.00;39.87
49397;BME280;35615;41.410;2.194;2023-02-20T03:17:42;102474.41;;;15.95;39.50
49397;BME280;35615;41.410;2.194;2023-02-20T03:20:17;102479.47;;;15.92;39.95
49397;BME280;35615;41.410;2.194;2023-02-20T03:23:03;102472.31;;;15.86;39.73
49397;BME280;35615;41.410;2.194;2023-02-20T03:25:37;102470.72;;;15.90;39.77
49397;BME280;35615;41.410;2.194;2023-02-20T03:31:42;102472.00;;;15.80;39.90
49397;BME280;35615;41.410;2.194;2023-02-20T03:34:23;102465.03;;;15.79;39.63
49397;BME280;35615;41.410;2.194;2023-02-20T03:37:18;102467.56;;;15.78;39.74
49397;BME280;35615;41.410;2.194;2023-02-20T03:40:18;102473.72;;;15.80;39.77
49397;BME280;35615;41.410;2.194;2023-02-20T03:43:18;102470.94;;;15.75;39.73
49397;BME280;35615;41.410;2.194;2023-02-20T03:46:04;102466.47;;;15.73;39.97
49397;BME280;35615;41.410;2.194;2023-02-20T03:51:19;102463.59;;;15.66;39.76
49397;BME280;35615;41.410;2.194;2023-02-20T03:54:03;102468.69;;;15.63;40.07
49397;BME280;35615;41.410;2.194;2023-02-20T03:56:52;102476.41;;;15.62;40.46
49397;BME280;35615;41.410;2.194;2023-02-20T03:59:49;102477.22;;;15.61;40.64
49397;BME280;35615;41.410;2.194;2023-02-20T04:05:29;102477.75;;;15.54;41.99
49397;BME280;35615;41.410;2.194;2023-02-20T04:08:43;102481.31;;;15.56;41.17
49397;BME280;35615;41.410;2.194;2023-02-20T04:11:25;102483.09;;;15.57;40.65
49397;BME280;35615;41.410;2.194;2023-02-20T04:13:55;102484.88;;;15.58;40.24
49397;BME280;35615;41.410;2.194;2023-02-20T04:16:25;102480.50;;;15.57;40.25
49397;BME280;35615;41.410;2.194;2023-02-20T04:18:56;102472.38;;;15.51;40.46
49397;BME280;35615;41.410;2.194;2023-02-20T04:21:37;102479.31;;;15.50;40.20
49397;BME280;35615;41.410;2.194;2023-02-20T04:24:28;102479.25;;;15.49;40.13
49397;BME280;35615;41.410;2.194;2023-02-20T04:27:18;102489.00;;;15.53;39.61
49397;BME280;35615;41.410;2.194;2023-02-20T04:29:55;102491.72;;;15.56;39.75
49397;BME280;35615;41.410;2.194;2023-02-20T04:32:24;102494.09;;;15.51;39.77
49397;BME280;35615;41.410;2.194;2023-02-20T04:35:01;102487.81;;;15.46;40.02
49397;BME280;35615;41.410;2.194;2023-02-20T04:37:30;102493.78;;;15.44;40.12
49397;BME280;35615;41.410;2.194;2023-02-20T04:39:58;102488.28;;;15.37;40.31
49397;BME280;35615;41.410;2.194;2023-02-20T04:42:37;102490.06;;;15.38;40.14
49397;BME280;35615;41.410;2.194;2023-02-20T04:45:17;102493.34;;;15.34;40.30
49397;BME280;35615;41.410;2.194;2023-02-20T04:47:47;102495.06;;;15.34;40.23
49397;BME280;35615;41.410;2.194;2023-02-20T04:50:31;102500.34;;;15.35;39.74
49397;BME280;35615;41.410;2.194;2023-02-20T04:53:15;102499.84;;;15.25;40.24
49397;BME280;35615;41.410;2.194;2023-02-20T04:55:46;102497.22;;;15.25;40.34
49397;BME280;35615;41.410;2.194;2023-02-20T04:58:22;102500.97;;;15.30;40.40
49397;BME280;35615;41.410;2.194;2023-02-20T05:01:20;102495.81;;;15.31;40.54
49397;BME280;35615;41.410;2.194;2023-02-20T05:03:52;102492.38;;;15.32;40.32
49397;BME280;35615;41.410;2.194;2023-02-20T05:06:21;102494.69;;;15.26;40.31
49397;BME280;35615;41.410;2.194;2023-02-20T05:08:49;102499.97;;;15.28;40.42
49397;BME280;35615;41.410;2.194;2023-02-20T05:11:22;102500.84;;;15.28;40.20
49397;BME280;35615;41.410;2.194;2023-02-20T05:13:52;102494.25;;;15.17;40.68
49397;BME280;35615;41.410;2.194;2023-02-20T05:16:30;102493.53;;;15.20;40.44
49397;BME280;35615;41.410;2.194;2023-02-20T05:18:58;102493.44;;;15.18;40.16
49397;BME280;35615;41.410;2.194;2023-02-20T05:21:31;102487.19;;;15.15;40.14
49397;BME280;35615;41.410;2.194;2023-02-20T05:24:25;102494.25;;;15.17;40.65
49397;BME280;35615;41.410;2.194;2023-02-20T05:26:54;102493.09;;;15.10;40.49
49397;BME280;35615;41.410;2.194;2023-02-20T05:29:26;102489.59;;;15.10;40.56
49397;BME280;35615;41.410;2.194;2023-02-20T05:31:56;102491.66;;;15.17;40.53
49397;BME280;35615;41.410;2.194;2023-02-20T05:34:24;102489.88;;;15.16;40.41
49397;BME280;35615;41.410;2.194;2023-02-20T05:37:01;102488.97;;;15.16;40.69
49397;BME280;35615;41.410;2.194;2023-02-20T05:39:35;102498.50;;;15.15;40.58
49397;BME280;35615;41.410;2.194;2023-02-20T05:42:08;102498.63;;;15.18;40.47
49397;BME280;35615;41.410;2.194;2023-02-20T05:44:36;102490.63;;;15.14;40.50
49397;BME280;35615;41.410;2.194;2023-02-20T05:47:14;102493.97;;;15.11;40.75
49397;BME280;35615;41.410;2.194;2023-02-20T05:49:45;102490.50;;;15.10;40.69
49397;BME280;35615;41.410;2.194;2023-02-20T05:52:15;102496.78;;;15.16;40.41
49397;BME280;35615;41.410;2.194;2023-02-20T05:54:48;102500.00;;;15.10;40.45
49397;BME280;35615;41.410;2.194;2023-02-20T05:57:23;102490.56;;;15.12;40.09
49397;BME280;35615;41.410;2.194;2023-02-20T05:59:54;102491.38;;;15.11;40.24
49397;BME280;35615;41.410;2.194;2023-02-20T06:02:30;102485.13;;;15.07;40.33
49397;BME280;35615;41.410;2.194;2023-02-20T06:05:00;102487.00;;;15.10;40.51
49397;BME280;35615;41.410;2.194;2023-02-20T06:08:01;102494.81;;;15.10;40.76
49397;BME280;35615;41.410;2.194;2023-02-20T06:10:50;102495.69;;;15.10;40.77
49397;BME280;35615;41.410;2.194;2023-02-20T06:13:17;102498.38;;;15.12;40.29
49397;BME280;35615;41.410;2.194;2023-02-20T06:15:47;102500.84;;;15.09;40.53
49397;BME280;35615;41.410;2.194;2023-02-20T06:18:26;102495.78;;;15.12;40.46
49397;BME280;35615;41.410;2.194;2023-02-20T06:21:01;102490.44;;;15.09;40.61
49397;BME280;35615;41.410;2.194;2023-02-20T06:23:31;102491.63;;;14.98;41.40
49397;BME280;35615;41.410;2.194;2023-02-20T06:26:07;102492.72;;;15.03;41.10
49397;BME280;35615;41.410;2.194;2023-02-20T06:28:45;102490.19;;;15.04;40.82
49397;BME280;35615;41.410;2.194;2023-02-20T06:31:25;102497.78;;;15.00;41.17
49397;BME280;35615;41.410;2.194;2023-02-20T06:34:06;102498.81;;;15.03;40.56
49397;BME280;35615;41.410;2.194;2023-02-20T06:36:36;102503.28;;;15.06;40.66
49397;BME280;35615;41.410;2.194;2023-02-20T06:39:05;102498.00;;;15.04;40.58
49397;BME280;35615;41.410;2.194;2023-02-20T06:41:36;102511.63;;;14.99;40.93
49397;BME280;35615;41.410;2.194;2023-02-20T06:44:04;102498.44;;;14.96;41.05
49397;BME280;35615;41.410;2.194;2023-02-20T06:46:34;102498.38;;;14.94;40.92
49397;BME280;35615;41.410;2.194;2023-02-20T06:49:01;102508.56;;;14.90;41.17
49397;BME280;35615;41.410;2.194;2023-02-20T06:51:33;102511.25;;;14.91;41.29
49397;BME280;35615;41.410;2.194;2023-02-20T06:54:07;102515.75;;;14.95;40.94
49397;BME280;35615;41.410;2.194;2023-02-20T06:56:35;102512.28;;;14.95;40.94
49397;BME280;35615;41.410;2.194;2023-02-20T06:59:05;102519.19;;;14.94;40.46
49397;BME280;35615;41.410;2.194;2023-02-20T07:01:40;102519.25;;;14.96;41.38
49397;BME280;35615;41.410;2.194;2023-02-20T07:04:20;102529.03;;;15.00;41.04
49397;BME280;35615;41.410;2.194;2023-02-20T07:06:48;102529.22;;;15.04;39.95
49397;BME280;35615;41.410;2.194;2023-02-20T07:09:18;102542.25;;;15.04;40.31
49397;BME280;35615;41.410;2.194;2023-02-20T07:11:46;102545.09;;;15.09;40.42
49397;BME280;35615;41.410;2.194;2023-02-20T07:14:20;102541.72;;;15.11;40.62
49397;BME280;35615;41.410;2.194;2023-02-20T07:16:50;102545.44;;;15.17;40.37
49397;BME280;35615;41.410;2.194;2023-02-20T07:19:18;102550.56;;;15.15;40.21
49397;BME280;35615;41.410;2.194;2023-02-20T07:21:48;102544.47;;;15.15;40.24
49397;BME280;35615;41.410;2.194;2023-02-20T07:24:16;102543.66;;;15.16;40.34
49397;BME280;35615;41.410;2.194;2023-02-20T07:26:49;102546.19;;;15.14;40.48
49397;BME280;35615;41.410;2.194;2023-02-20T07:29:29;102553.84;;;15.11;40.23
49397;BME280;35615;41.410;2.194;2023-02-20T07:31:56;102553.25;;;15.17;40.69
49397;BME280;35615;41.410;2.194;2023-02-20T07:34:27;102557.88;;;15.22;40.26
49397;BME280;35615;41.410;2.194;2023-02-20T07:37:05;102551.03;;;15.24;40.46
49397;BME280;35615;41.410;2.194;2023-02-20T07:39:49;102552.72;;;15.24;40.46
49397;BME280;35615;41.410;2.194;2023-02-20T07:42:19;102558.00;;;15.25;40.91
49397;BME280;35615;41.410;2.194;2023-02-20T07:45:03;102561.56;;;15.27;41.29
49397;BME280;35615;41.410;2.194;2023-02-20T07:47:40;102565.31;;;15.32;40.70
49397;BME280;35615;41.410;2.194;2023-02-20T07:50:13;102560.84;;;15.30;40.44
49397;BME280;35615;41.410;2.194;2023-02-20T07:52:44;102565.50;;;15.37;40.36
49397;BME280;35615;41.410;2.194;2023-02-20T07:55:18;102569.06;;;15.39;40.17
49397;BME280;35615;41.410;2.194;2023-02-20T07:57:56;102577.25;;;15.29;39.95
49397;BME280;35615;41.410;2.194;2023-02-20T08:00:29;102572.56;;;15.39;39.84
49397;BME280;35615;41.410;2.194;2023-02-20T08:03:09;102578.91;;;15.45;39.89
49397;BME280;35615;41.410;2.194;2023-02-20T08:05:41;102587.97;;;15.53;39.56
49397;BME280;35615;41.410;2.194;2023-02-20T08:08:15;102583.72;;;15.55;39.60
49397;BME280;35615;41.410;2.194;2023-02-20T08:11:01;102582.41;;;15.45;39.17
49397;BME280;35615;41.410;2.194;2023-02-20T08:13:36;102577.69;;;15.56;39.59
49397;BME280;35615;41.410;2.194;2023-02-20T08:16:07;102577.03;;;15.60;39.40
49397;BME280;35615;41.410;2.194;2023-02-20T08:18:47;102575.56;;;15.65;39.25
49397;BME280;35615;41.410;2.194;2023-02-20T08:21:15;102582.69;;;15.69;39.20
49397;BME280;35615;41.410;2.194;2023-02-20T08:23:47;102583.72;;;15.73;38.99
49397;BME280;35615;41.410;2.194;2023-02-20T08:26:21;102580.56;;;15.80;38.79
49397;BME280;35615;41.410;2.194;2023-02-20T08:29:05;102587.88;;;15.87;39.03
49397;BME280;35615;41.410;2.194;2023-02-20T08:31:46;102580.38;;;15.94;38.89
49397;BME280;35615;41.410;2.194;2023-02-20T08:34:20;102577.06;;;16.18;38.93
49397;BME280;35615;41.410;2.194;2023-02-20T08:36:53;102579.13;;;16.44;38.43
49397;BME280;35615;41.410;2.194;2023-02-20T08:39:30;102579.72;;;16.77;37.79
49397;BME280;35615;41.410;2.194;2023-02-20T08:42:03;102580.38;;;17.15;37.28
49397;BME280;35615;41.410;2.194;2023-02-20T08:44:42;102581.09;;;17.54;36.40
49397;BME280;35615;41.410;2.194;2023-02-20T08:47:11;102577.38;;;17.94;36.01
49397;BME280;35615;41.410;2.194;2023-02-20T08:49:48;102574.50;;;18.34;34.89
49397;BME280;35615;41.410;2.194;2023-02-20T08:52:15;102579.19;;;18.68;34.38
49397;BME280;35615;41.410;2.194;2023-02-20T08:55:02;102570.91;;;19.07;33.20
49397;BME280;35615;41.410;2.194;2023-02-20T08:57:29;102573.53;;;19.35;33.35
49397;BME280;35615;41.410;2.194;2023-02-20T08:59:59;102572.69;;;19.63;32.81
49397;BME280;35615;41.410;2.194;2023-02-20T09:02:30;102585.81;;;19.93;32.30
49397;BME280;35615;41.410;2.194;2023-02-20T09:05:01;102575.81;;;20.10;32.46
49397;BME280;35615;41.410;2.194;2023-02-20T09:07:32;102586.94;;;20.33;32.20
49397;BME280;35615;41.410;2.194;2023-02-20T09:10:10;102578.72;;;20.51;31.53
49397;BME280;35615;41.410;2.194;2023-02-20T09:13:02;102581.94;;;20.74;31.21
49397;BME280;35615;41.410;2.194;2023-02-20T09:18:24;102582.25;;;21.24;30.12
49397;BME280;35615;41.410;2.194;2023-02-20T09:21:13;102585.66;;;21.56;29.49
49397;BME280;35615;41.410;2.194;2023-02-20T09:23:47;102584.41;;;21.79;29.25
49397;BME280;35615;41.410;2.194;2023-02-20T09:26:25;102582.31;;;22.05;29.45
49397;BME280;35615;41.410;2.194;2023-02-20T09:29:02;102586.38;;;22.30;30.56
49397;BME280;35615;41.410;2.194;2023-02-20T09:31:38;102591.03;;;22.45;31.60
49397;BME280;35615;41.410;2.194;2023-02-20T09:34:14;102590.72;;;22.78;32.63
49397;BME280;35615;41.410;2.194;2023-02-20T09:36:50;102595.25;;;22.83;34.25
49397;BME280;35615;41.410;2.194;2023-02-20T09:39:22;102600.13;;;23.12;34.37
49397;BME280;35615;41.410;2.194;2023-02-20T09:44:59;102599.56;;;23.34;35.54
49397;BME280;35615;41.410;2.194;2023-02-20T09:50:58;102609.06;;;23.82;35.08
49397;BME280;35615;41.410;2.194;2023-02-20T09:56:42;102626.19;;;24.13;34.07
49397;BME280;35615;41.410;2.194;2023-02-20T09:59:26;102625.25;;;24.07;34.14
49397;BME280;35615;41.410;2.194;2023-02-20T10:02:01;102622.09;;;24.38;33.64
49397;BME280;35615;41.410;2.194;2023-02-20T10:04:46;102626.44;;;24.33;34.09
49397;BME280;35615;41.410;2.194;2023-02-20T10:07:38;102620.44;;;24.49;35.02
49397;BME280;35615;41.410;2.194;2023-02-20T10:16:01;102620.75;;;24.80;34.07
49397;BME280;35615;41.410;2.194;2023-02-20T10:21:54;102629.72;;;24.96;33.80
49397;BME280;35615;41.410;2.194;2023-02-20T10:30:03;102617.00;;;25.67;32.98
49397;BME280;35615;41.410;2.194;2023-02-20T10:33:10;102621.53;;;25.81;32.66
49397;BME280;35615;41.410;2.194;2023-02-20T10:38:32;102625.19;;;26.09;32.87
49397;BME280;35615;41.410;2.194;2023-02-20T10:41:17;102618.84;;;25.73;33.18
49397;BME280;35615;41.410;2.194;2023-02-20T10:43:58;102615.53;;;26.32;32.36
49397;BME280;35615;41.410;2.194;2023-02-20T10:49:47;102615.50;;;26.17;33.34
49397;BME280;35615;41.410;2.194;2023-02-20T10:52:27;102605.00;;;26.40;33.22
49397;BME280;35615;41.410;2.194;2023-02-20T11:01:18;102601.50;;;26.63;33.50
49397;BME280;35615;41.410;2.194;2023-02-20T11:06:45;102596.16;;;26.59;33.60
49397;BME280;35615;41.410;2.194;2023-02-20T11:09:15;102598.88;;;27.06;33.07
49397;BME280;35615;41.410;2.194;2023-02-20T11:15:13;102597.09;;;27.19;33.49
49397;BME280;35615;41.410;2.194;2023-02-20T11:17:47;102590.88;;;27.29;33.58
49397;BME280;35615;41.410;2.194;2023-02-20T11:23:03;102581.13;;;27.33;33.93
49397;BME280;35615;41.410;2.194;2023-02-20T11:25:37;102582.03;;;27.32;33.69
49397;BME280;35615;41.410;2.194;2023-02-20T11:30:42;102574.84;;;27.70;33.40
49397;BME280;35615;41.410;2.194;2023-02-20T11:33:22;102576.53;;;27.88;33.23
49397;BME280;35615;41.410;2.194;2023-02-20T11:35:55;102567.59;;;28.04;33.13
49397;BME280;35615;41.410;2.194;2023-02-20T11:38:29;102563.28;;;27.81;33.58
49397;BME280;35615;41.410;2.194;2023-02-20T11:43:37;102558.69;;;28.18;33.24
49397;BME280;35615;41.410;2.194;2023-02-20T11:46:14;102559.31;;;28.56;32.73
49397;BME280;35615;41.410;2.194;2023-02-20T11:49:05;102549.56;;;28.55;32.41
49397;BME280;35615;41.410;2.194;2023-02-20T11:51:43;102545.66;;;28.99;32.19
49397;BME280;35615;41.410;2.194;2023-02-20T11:54:26;102549.06;;;29.12;31.98
49397;BME280;35615;41.410;2.194;2023-02-20T11:58:03;102537.59;;;29.07;32.16
49397;BME280;35615;41.410;2.194;2023-02-20T12:01:00;102540.84;;;29.35;31.75
49397;BME280;35615;41.410;2.194;2023-02-20T12:03:36;102536.28;;;29.49;31.34
49397;BME280;35615;41.410;2.194;2023-02-20T12:09:27;102524.50;;;28.84;31.91
49397;BME280;35615;41.410;2.194;2023-02-20T12:12:02;102528.03;;;28.89;32.47
49397;BME280;35615;41.410;2.194;2023-02-20T12:14:38;102527.94;;;28.98;32.10
49397;BME280;35615;41.410;2.194;2023-02-20T12:20:14;102512.28;;;28.60;32.41
49397;BME280;35615;41.410;2.194;2023-02-20T12:23:28;102506.47;;;29.13;32.06
49397;BME280;35615;41.410;2.194;2023-02-20T12:29:31;102510.91;;;29.13;31.58
49397;BME280;35615;41.410;2.194;2023-02-20T12:35:35;102498.66;;;28.98;31.93
49397;BME280;35615;41.410;2.194;2023-02-20T12:41:19;102499.59;;;28.94;32.38
49397;BME280;35615;41.410;2.194;2023-02-20T12:44:22;102483.13;;;29.37;31.67
49397;BME280;35615;41.410;2.194;2023-02-20T12:50:29;102485.63;;;29.52;31.21
49397;BME280;35615;41.410;2.194;2023-02-20T13:00:13;102482.00;;;29.58;31.02
49397;BME280;35615;41.410;2.194;2023-02-20T13:03:09;102469.94;;;29.92;30.65
49397;BME280;35615;41.410;2.194;2023-02-20T13:05:54;102470.00;;;29.89;30.82
49397;BME280;35615;41.410;2.194;2023-02-20T13:08:32;102467.78;;;30.20;30.36
49397;BME280;35615;41.410;2.194;2023-02-20T13:11:47;102468.56;;;30.27;30.35
49397;BME280;35615;41.410;2.194;2023-02-20T13:15:02;102456.00;;;30.33;30.50
49397;BME280;35615;41.410;2.194;2023-02-20T13:21:00;102439.69;;;29.96;30.69
49397;BME280;35615;41.410;2.194;2023-02-20T13:23:48;102438.97;;;30.90;29.27
49397;BME280;35615;41.410;2.194;2023-02-20T13:27:01;102441.84;;;30.79;29.72
49397;BME280;35615;41.410;2.194;2023-02-20T13:30:21;102427.94;;;30.62;29.70
49397;BME280;35615;41.410;2.194;2023-02-20T13:33:25;102433.66;;;30.41;30.54
49397;BME280;35615;41.410;2.194;2023-02-20T13:36:13;102428.94;;;30.01;30.55
49397;BME280;35615;41.410;2.194;2023-02-20T13:42:32;102412.97;;;30.01;31.02
49397;BME280;35615;41.410;2.194;2023-02-20T13:48:47;102407.56;;;30.04;30.73
49397;BME280;35615;41.410;2.194;2023-02-20T13:51:28;102408.09;;;29.73;31.08
49397;BME280;35615;41.410;2.194;2023-02-20T13:54:30;102403.78;;;28.96;32.17
49397;BME280;35615;41.410;2.194;2023-02-20T14:01:35;102401.72;;;28.38;33.57
49397;BME280;35615;41.410;2.194;2023-02-20T14:04:39;102404.63;;;28.07;33.86
49397;BME280;35615;41.410;2.194;2023-02-20T14:07:58;102400.38;;;27.86;34.42
49397;BME280;35615;41.410;2.194;2023-02-20T14:11:06;102396.31;;;27.15;35.42
49397;BME280;35615;41.410;2.194;2023-02-20T14:14:20;102403.31;;;27.27;35.78
49397;BME280;35615;41.410;2.194;2023-02-20T14:17:27;102395.56;;;26.75;36.95
49397;BME280;35615;41.410;2.194;2023-02-20T14:20:24;102392.06;;;26.30;37.33
49397;BME280;35615;41.410;2.194;2023-02-20T14:23:25;102400.91;;;26.30;37.76
49397;BME280;35615;41.410;2.194;2023-02-20T14:26:28;102396.47;;;26.16;37.25
49397;BME280;35615;41.410;2.194;2023-02-20T14:29:30;102400.84;;;25.71;38.49
49397;BME280;35615;41.410;2.194;2023-02-20T14:32:29;102398.09;;;25.33;39.43
49397;BME280;35615;41.410;2.194;2023-02-20T14:38:30;102405.75;;;24.76;40.55
49397;BME280;35615;41.410;2.194;2023-02-20T14:41:21;102402.09;;;24.57;40.94
49397;BME280;35615;41.410;2.194;2023-02-20T14:44:09;102401.06;;;24.39;41.44
49397;BME280;35615;41.410;2.194;2023-02-20T14:47:06;102393.28;;;24.55;40.80
49397;BME280;35615;41.410;2.194;2023-02-20T14:49:44;102385.75;;;23.96;42.23
49397;BME280;35615;41.410;2.194;2023-02-20T14:52:38;102379.69;;;24.08;41.77
49397;BME280;35615;41.410;2.194;2023-02-20T14:55:27;102385.19;;;24.31;41.45
49397;BME280;35615;41.410;2.194;2023-02-20T15:04:11;102386.63;;;23.97;41.60
49397;BME280;35615;41.410;2.194;2023-02-20T15:09:55;102382.84;;;23.70;42.64
49397;BME280;35615;41.410;2.194;2023-02-20T15:12:40;102373.16;;;23.71;42.57
49397;BME280;35615;41.410;2.194;2023-02-20T15:15:36;102367.78;;;23.60;42.70
49397;BME280;35615;41.410;2.194;2023-02-20T15:18:45;102360.03;;;23.77;42.15
49397;BME280;35615;41.410;2.194;2023-02-20T15:21:42;102359.09;;;23.70;42.44
49397;BME280;35615;41.410;2.194;2023-02-20T15:24:33;102355.47;;;23.61;42.55
49397;BME280;35615;41.410;2.194;2023-02-20T15:27:36;102352.66;;;23.44;42.75
49397;BME280;35615;41.410;2.194;2023-02-20T15:30:18;102353.53;;;23.46;42.65
49397;BME280;35615;41.410;2.194;2023-02-20T15:33:15;102352.03;;;23.65;42.47
49397;BME280;35615;41.410;2.194;2023-02-20T15:36:01;102351.78;;;23.45;42.85
49397;BME280;35615;41.410;2.194;2023-02-20T15:38:50;102361.19;;;23.20;43.47
49397;BME280;35615;41.410;2.194;2023-02-20T15:41:50;102356.28;;;23.55;42.92
49397;BME280;35615;41.410;2.194;2023-02-20T15:44:28;102358.91;;;23.54;42.08
49397;BME280;35615;41.410;2.194;2023-02-20T15:47:11;102353.88;;;22.98;44.11
49397;BME280;35615;41.410;2.194;2023-02-20T15:49:58;102357.28;;;22.89;43.79
49397;BME280;35615;41.410;2.194;2023-02-20T15:52:50;102367.78;;;22.84;43.95
49397;BME280;35615;41.410;2.194;2023-02-20T15:58:49;102368.16;;;22.51;44.40
49397;BME280;35615;41.410;2.194;2023-02-20T16:01:33;102366.16;;;22.38;44.74
49397;BME280;35615;41.410;2.194;2023-02-20T16:04:18;102361.47;;;22.17;45.19
49397;BME280;35615;41.410;2.194;2023-02-20T16:06:48;102368.53;;;22.20;44.90
49397;BME280;35615;41.410;2.194;2023-02-20T16:09:58;102361.50;;;22.19;45.44
49397;BME280;35615;41.410;2.194;2023-02-20T16:12:42;102361.44;;;21.66;46.43
49397;BME280;35615;41.410;2.194;2023-02-20T16:15:22;102371.63;;;21.96;45.55
49397;BME280;35615;41.410;2.194;2023-02-20T16:17:59;102363.81;;;21.52;46.64
49397;BME280;35615;41.410;2.194;2023-02-20T16:20:38;102366.16;;;21.38;47.06
49397;BME280;35615;41.410;2.194;2023-02-20T16:23:11;102371.81;;;21.60;46.40
49397;BME280;35615;41.410;2.194;2023-02-20T16:26:10;102369.84;;;21.48;47.19
49397;BME280;35615;41.410;2.194;2023-02-20T16:29:04;102371.34;;;21.35;47.52
49397;BME280;35615;41.410;2.194;2023-02-20T16:35:28;102374.38;;;21.13;47.89